createdAt,value
2018-08-20T00:01:50.643Z,1005.01
2018-08-20T00:02:50.607Z,1005.00
2018-08-20T00:03:50.591Z,1005.03
2018-08-20T00:04:50.578Z,1005.07
2018-08-20T00:05:50.564Z,1005.03
2018-08-20T00:06:50.543Z,1005.03
2018-08-20T00:07:50.530Z,1005.02
2018-08-20T00:08:50.517Z,1005.02
2018-08-20T00:09:50.496Z,1004.98
2018-08-20T00:10:50.480Z,1005.01
2018-08-20T00:11:50.466Z,1005.09
2018-08-20T00:12:50.449Z,1005.05
2018-08-20T00:13:50.433Z,1005.07
2018-08-20T00:14:50.417Z,1005.07
2018-08-20T00:15:50.401Z,1005.09
2018-08-20T00:16:50.383Z,1005.07
2018-08-20T00:17:50.366Z,1005.10
2018-08-20T00:18:50.350Z,1005.08
2018-08-20T00:19:50.360Z,1005.12
2018-08-20T00:20:50.324Z,1005.06
2018-08-20T00:21:50.309Z,1005.06
2018-08-20T00:22:50.289Z,1005.07
2018-08-20T00:23:50.271Z,1005.04
2018-08-20T00:24:50.257Z,1005.05
2018-08-20T00:25:50.241Z,1005.08
2018-08-20T00:26:50.223Z,1005.07
2018-08-20T00:27:50.214Z,1005.08
2018-08-20T00:28:50.197Z,1005.02
2018-08-20T00:29:50.180Z,1005.08
2018-08-20T00:30:50.165Z,1005.07
2018-08-20T00:31:50.152Z,1005.07
2018-08-20T00:32:50.133Z,1005.09
2018-08-20T00:33:50.115Z,1005.03
2018-08-20T00:34:50.100Z,1005.02
2018-08-20T00:35:50.090Z,1005.06
2018-08-20T00:36:50.080Z,1005.05
2018-08-20T00:37:50.052Z,1005.03
2018-08-20T00:38:50.038Z,1005.03
2018-08-20T00:39:50.037Z,1005.02
2018-08-20T00:40:50.009Z,1005.02
2018-08-20T00:41:49.992Z,1004.99
2018-08-20T00:42:49.977Z,1004.97
2018-08-20T00:43:49.960Z,1004.94
2018-08-20T00:44:49.935Z,1004.99
2018-08-20T00:45:49.932Z,1004.98
2018-08-20T00:46:49.914Z,1004.99
2018-08-20T00:47:49.897Z,1004.97
2018-08-20T00:48:49.882Z,1004.95
2018-08-20T00:49:49.867Z,1004.97
2018-08-20T00:50:49.855Z,1004.95
2018-08-20T00:51:49.834Z,1004.96
2018-08-20T00:52:49.860Z,1004.94
2018-08-20T00:53:49.805Z,1004.91
2018-08-20T00:54:49.791Z,1004.93
2018-08-20T00:55:49.779Z,1004.92
2018-08-20T00:56:49.758Z,1004.92
2018-08-20T00:57:49.741Z,1004.92
2018-08-20T00:58:49.724Z,1004.88
2018-08-20T00:59:49.714Z,1004.90
2018-08-20T01:00:49.695Z,1004.86
2018-08-20T01:01:49.678Z,1004.89
2018-08-20T01:02:49.664Z,1004.88
2018-08-20T01:03:49.641Z,1004.87
2018-08-20T01:04:49.628Z,1004.90
2018-08-20T01:05:49.613Z,1004.90
2018-08-20T01:06:49.597Z,1004.91
2018-08-20T01:07:49.584Z,1004.86
2018-08-20T01:08:49.572Z,1004.90
2018-08-20T01:09:49.552Z,1004.87
2018-08-20T01:10:49.533Z,1004.88
2018-08-20T01:11:49.525Z,1004.89
2018-08-20T01:12:49.505Z,1004.88
2018-08-20T01:13:49.488Z,1004.89
2018-08-20T01:14:49.473Z,1004.87
2018-08-20T01:15:49.456Z,1004.89
2018-08-20T01:16:49.442Z,1004.92
2018-08-20T01:17:49.426Z,1004.87
2018-08-20T01:18:49.408Z,1004.89
2018-08-20T01:19:49.395Z,1004.88
2018-08-20T01:20:49.383Z,1004.87
2018-08-20T01:21:49.364Z,1004.88
2018-08-20T01:22:49.355Z,1004.89
2018-08-20T01:23:49.331Z,1004.85
2018-08-20T01:24:49.318Z,1004.83
2018-08-20T01:25:49.309Z,1004.83
2018-08-20T01:26:49.289Z,1004.84
2018-08-20T01:27:49.268Z,1004.82
2018-08-20T01:28:49.253Z,1004.79
2018-08-20T01:29:49.246Z,1004.79
2018-08-20T01:30:49.221Z,1004.80
2018-08-20T01:31:49.207Z,1004.77
2018-08-20T01:32:49.189Z,1004.76
2018-08-20T01:33:49.174Z,1004.78
2018-08-20T01:34:49.160Z,1004.76
2018-08-20T01:35:49.145Z,1004.76
2018-08-20T01:36:49.130Z,1004.79
2018-08-20T01:37:49.113Z,1004.78
2018-08-20T01:38:49.097Z,1004.77
2018-08-20T01:39:49.075Z,1004.78
2018-08-20T01:40:49.066Z,1004.75
2018-08-20T01:41:49.050Z,1004.72
2018-08-20T01:42:49.032Z,1004.75
2018-08-20T01:43:49.025Z,1004.77
2018-08-20T01:44:49.003Z,1004.77
2018-08-20T01:45:48.987Z,1004.76
2018-08-20T01:46:48.972Z,1004.76
2018-08-20T01:47:48.955Z,1004.76
2018-08-20T01:48:48.940Z,1004.74
2018-08-20T01:49:48.937Z,1004.76
2018-08-20T01:50:48.906Z,1004.81
2018-08-20T01:51:48.892Z,1004.83
2018-08-20T01:52:48.875Z,1004.82
2018-08-20T01:53:48.871Z,1004.81
2018-08-20T01:54:48.845Z,1004.80
2018-08-20T01:55:48.828Z,1004.78
2018-08-20T01:56:48.813Z,1004.79
2018-08-20T01:57:48.798Z,1004.75
2018-08-20T01:58:48.780Z,1004.74
2018-08-20T01:59:48.766Z,1004.75
2018-08-20T02:00:48.749Z,1004.71
2018-08-20T02:01:48.732Z,1004.73
2018-08-20T02:02:48.719Z,1004.72
2018-08-20T02:03:48.704Z,1004.72
2018-08-20T02:04:48.688Z,1004.72
2018-08-20T02:05:48.670Z,1004.73
2018-08-20T02:06:48.655Z,1004.68
2018-08-20T02:07:48.638Z,1004.67
2018-08-20T02:08:48.621Z,1004.72
2018-08-20T02:09:48.607Z,1004.70
2018-08-20T02:10:48.587Z,1004.74
2018-08-20T02:11:48.573Z,1004.71
2018-08-20T02:12:48.564Z,1004.72
2018-08-20T02:13:48.540Z,1004.68
2018-08-20T02:14:48.541Z,1004.70
2018-08-20T02:15:48.509Z,1004.72
2018-08-20T02:16:48.503Z,1004.71
2018-08-20T02:17:48.493Z,1004.72
2018-08-20T02:18:48.464Z,1004.70
2018-08-20T02:19:48.454Z,1004.68
2018-08-20T02:20:48.434Z,1004.69
2018-08-20T02:21:48.414Z,1004.65
2018-08-20T02:22:48.399Z,1004.63
2018-08-20T02:23:48.390Z,1004.65
2018-08-20T02:24:48.367Z,1004.64
2018-08-20T02:25:48.353Z,1004.68
2018-08-20T02:26:48.335Z,1004.64
2018-08-20T02:27:48.326Z,1004.66
2018-08-20T02:28:48.311Z,1004.67
2018-08-20T02:29:48.289Z,1004.69
2018-08-20T02:30:48.266Z,1004.68
2018-08-20T02:31:48.255Z,1004.72
2018-08-20T02:32:48.241Z,1004.73
2018-08-20T02:33:48.226Z,1004.74
2018-08-20T02:34:48.220Z,1004.71
2018-08-20T02:35:48.195Z,1004.69
2018-08-20T02:36:48.177Z,1004.69
2018-08-20T02:37:48.160Z,1004.70
2018-08-20T02:38:48.146Z,1004.74
2018-08-20T02:39:48.128Z,1004.66
2018-08-20T02:40:48.111Z,1004.71
2018-08-20T02:41:48.097Z,1004.65
2018-08-20T02:42:48.080Z,1004.65
2018-08-20T02:43:48.063Z,1004.67
2018-08-20T02:44:48.048Z,1004.66
2018-08-20T02:45:48.033Z,1004.63
2018-08-20T02:46:48.019Z,1004.63
2018-08-20T02:47:48.000Z,1004.59
2018-08-20T02:48:47.989Z,1004.60
2018-08-20T02:49:47.968Z,1004.61
2018-08-20T02:50:47.951Z,1004.62
2018-08-20T02:51:47.936Z,1004.65
2018-08-20T02:52:47.923Z,1004.65
2018-08-20T02:53:47.903Z,1004.65
2018-08-20T02:54:47.887Z,1004.60
2018-08-20T02:55:47.873Z,1004.59
2018-08-20T02:56:47.852Z,1004.61
2018-08-20T02:57:47.838Z,1004.57
2018-08-20T02:58:47.822Z,1004.58
2018-08-20T02:59:47.805Z,1004.60
2018-08-20T03:00:47.790Z,1004.60
2018-08-20T03:01:47.772Z,1004.62
2018-08-20T03:02:47.755Z,1004.61
2018-08-20T03:03:47.840Z,1004.60
2018-08-20T03:04:47.722Z,1004.58
2018-08-20T03:05:47.706Z,1004.64
2018-08-20T03:06:47.703Z,1004.64
2018-08-20T03:07:47.672Z,1004.58
2018-08-20T03:08:47.659Z,1004.57
2018-08-20T03:09:47.642Z,1004.56
2018-08-20T03:10:47.627Z,1004.56
2018-08-20T03:11:47.608Z,1004.56
2018-08-20T03:12:47.589Z,1004.55
2018-08-20T03:13:47.581Z,1004.55
2018-08-20T03:14:47.562Z,1004.54
2018-08-20T03:15:47.543Z,1004.54
2018-08-20T03:16:47.526Z,1004.54
2018-08-20T03:17:47.512Z,1004.55
2018-08-20T03:18:47.490Z,1004.53
2018-08-20T03:19:47.479Z,1004.50
2018-08-20T03:20:47.464Z,1004.53
2018-08-20T03:21:47.445Z,1004.52
2018-08-20T03:22:47.430Z,1004.52
2018-08-20T03:23:47.413Z,1004.58
2018-08-20T03:24:47.397Z,1004.58
2018-08-20T03:25:47.384Z,1004.60
2018-08-20T03:26:47.372Z,1004.62
2018-08-20T03:27:47.390Z,1004.65
2018-08-20T03:28:47.331Z,1004.64
2018-08-20T03:29:47.320Z,1004.61
2018-08-20T03:30:47.299Z,1004.66
2018-08-20T03:31:47.284Z,1004.67
2018-08-20T03:32:47.288Z,1004.72
2018-08-20T03:33:47.255Z,1004.69
2018-08-20T03:34:47.234Z,1004.71
2018-08-20T03:35:47.220Z,1004.75
2018-08-20T03:36:47.218Z,1004.73
2018-08-20T03:37:47.185Z,1004.73
2018-08-20T03:38:47.170Z,1004.74
2018-08-20T03:39:47.153Z,1004.77
2018-08-20T03:40:47.139Z,1004.78
2018-08-20T03:41:47.121Z,1004.77
2018-08-20T03:42:47.106Z,1004.76
2018-08-20T03:43:47.083Z,1004.79
2018-08-20T03:44:47.072Z,1004.81
2018-08-20T03:45:47.056Z,1004.78
2018-08-20T03:46:47.040Z,1004.77
2018-08-20T03:47:47.021Z,1004.75
2018-08-20T03:48:47.010Z,1004.75
2018-08-20T03:49:46.994Z,1004.76
2018-08-20T03:50:46.971Z,1004.75
2018-08-20T03:51:46.954Z,1004.76
2018-08-20T03:52:46.934Z,1004.75
2018-08-20T03:53:46.924Z,1004.71
2018-08-20T03:54:46.910Z,1004.71
2018-08-20T03:55:46.891Z,1004.73
2018-08-20T03:56:46.875Z,1004.69
2018-08-20T03:57:46.854Z,1004.68
2018-08-20T03:58:46.840Z,1004.69
2018-08-20T03:59:46.824Z,1004.71
2018-08-20T04:00:46.812Z,1004.71
2018-08-20T04:01:46.794Z,1004.72
2018-08-20T04:02:46.775Z,1004.68
2018-08-20T04:03:46.758Z,1004.63
2018-08-20T04:04:46.741Z,1004.64
2018-08-20T04:05:46.729Z,1004.58
2018-08-20T04:06:46.711Z,1004.62
2018-08-20T04:07:46.695Z,1004.62
2018-08-20T04:08:46.680Z,1004.65
2018-08-20T04:09:46.666Z,1004.65
2018-08-20T04:10:46.650Z,1004.66
2018-08-20T04:11:46.631Z,1004.65
2018-08-20T04:12:46.613Z,1004.66
2018-08-20T04:13:46.598Z,1004.70
2018-08-20T04:14:46.581Z,1004.71
2018-08-20T04:15:46.563Z,1004.71
2018-08-20T04:16:46.550Z,1004.76
2018-08-20T04:17:46.536Z,1004.73
2018-08-20T04:18:46.516Z,1004.74
2018-08-20T04:19:46.499Z,1004.74
2018-08-20T04:20:46.486Z,1004.77
2018-08-20T04:21:46.468Z,1004.74
2018-08-20T04:22:46.451Z,1004.72
2018-08-20T04:23:46.436Z,1004.75
2018-08-20T04:24:46.418Z,1004.70
2018-08-20T04:25:46.402Z,1004.74
2018-08-20T04:26:46.388Z,1004.69
2018-08-20T04:27:46.370Z,1004.69
2018-08-20T04:28:46.355Z,1004.68
2018-08-20T04:29:46.338Z,1004.65
2018-08-20T04:30:46.377Z,1004.66
2018-08-20T04:31:46.315Z,1004.70
2018-08-20T04:32:46.291Z,1004.67
2018-08-20T04:33:46.274Z,1004.69
2018-08-20T04:34:46.257Z,1004.67
2018-08-20T04:35:46.240Z,1004.67
2018-08-20T04:36:46.220Z,1004.69
2018-08-20T04:37:46.214Z,1004.67
2018-08-20T04:38:46.191Z,1004.68
2018-08-20T04:39:46.174Z,1004.65
2018-08-20T04:40:46.160Z,1004.64
2018-08-20T04:41:46.148Z,1004.67
2018-08-20T04:42:46.126Z,1004.68
2018-08-20T04:43:46.120Z,1004.70
2018-08-20T04:44:46.092Z,1004.69
2018-08-20T04:45:46.079Z,1004.68
2018-08-20T04:46:46.062Z,1004.65
2018-08-20T04:47:46.046Z,1004.66
2018-08-20T04:48:46.034Z,1004.69
2018-08-20T04:49:46.063Z,1004.68
2018-08-20T04:50:46.036Z,1004.70
2018-08-20T04:51:45.982Z,1004.69
2018-08-20T04:52:45.963Z,1004.72
2018-08-20T04:53:45.950Z,1004.70
2018-08-20T04:54:45.931Z,1004.72
2018-08-20T04:55:45.914Z,1004.73
2018-08-20T04:56:45.896Z,1004.72
2018-08-20T04:57:45.883Z,1004.72
2018-08-20T04:58:45.875Z,1004.71
2018-08-20T04:59:45.855Z,1004.70
2018-08-20T05:00:45.835Z,1004.74
2018-08-20T05:01:45.817Z,1004.74
2018-08-20T05:02:45.809Z,1004.71
2018-08-20T05:03:45.782Z,1004.73
2018-08-20T05:04:45.769Z,1004.76
2018-08-20T05:05:45.754Z,1004.76
2018-08-20T05:06:45.733Z,1004.76
2018-08-20T05:07:45.721Z,1004.75
2018-08-20T05:08:45.705Z,1004.79
2018-08-20T05:09:45.688Z,1004.80
2018-08-20T05:10:45.682Z,1004.82
2018-08-20T05:11:45.654Z,1004.81
2018-08-20T05:12:45.639Z,1004.83
2018-08-20T05:13:45.622Z,1004.82
2018-08-20T05:14:45.607Z,1004.82
2018-08-20T05:15:45.590Z,1004.86
2018-08-20T05:16:45.573Z,1004.85
2018-08-20T05:17:45.558Z,1004.86
2018-08-20T05:18:45.559Z,1004.81
2018-08-20T05:19:45.529Z,1004.85
2018-08-20T05:20:45.509Z,1004.83
2018-08-20T05:21:45.492Z,1004.84
2018-08-20T05:22:45.473Z,1004.81
2018-08-20T05:23:45.463Z,1004.87
2018-08-20T05:24:45.446Z,1004.84
2018-08-20T05:25:45.427Z,1004.89
2018-08-20T05:26:45.412Z,1004.86
2018-08-20T05:27:45.415Z,1004.86
2018-08-20T05:28:45.373Z,1004.85
2018-08-20T05:31:18.483Z,1004.85
2018-08-20T05:32:18.447Z,1004.85
2018-08-20T05:33:18.431Z,1004.86
2018-08-20T05:34:18.427Z,1004.87
2018-08-20T05:35:18.398Z,1004.84
2018-08-20T05:36:18.385Z,1004.90
2018-08-20T05:37:18.364Z,1004.90
2018-08-20T05:38:18.356Z,1004.89
2018-08-20T05:39:18.333Z,1004.90
2018-08-20T05:40:18.315Z,1004.88
2018-08-20T05:41:18.301Z,1004.88
2018-08-20T05:42:18.284Z,1004.91
2018-08-20T05:43:18.274Z,1004.94
2018-08-20T05:44:18.246Z,1004.95
2018-08-20T05:45:18.235Z,1004.93
2018-08-20T05:46:18.223Z,1004.98
2018-08-20T05:47:18.205Z,1004.99
2018-08-20T05:48:18.190Z,1005.00
2018-08-20T05:49:18.168Z,1005.02
2018-08-20T05:50:18.152Z,1005.01
2018-08-20T05:51:18.139Z,1005.04
2018-08-20T05:52:18.119Z,1005.01
2018-08-20T05:53:18.102Z,1005.01
2018-08-20T05:54:18.092Z,1005.02
2018-08-20T05:55:18.068Z,1005.00
2018-08-20T05:56:18.055Z,1005.05
2018-08-20T05:57:18.038Z,1005.05
2018-08-20T05:58:18.051Z,1005.08
2018-08-20T05:59:18.089Z,1005.13
2018-08-20T06:00:17.987Z,1005.15
2018-08-20T06:01:17.974Z,1005.14
2018-08-20T06:02:17.955Z,1005.13
2018-08-20T06:03:17.940Z,1005.14
2018-08-20T06:04:17.933Z,1005.08
2018-08-20T06:05:17.910Z,1005.11
2018-08-20T06:06:17.896Z,1005.08
2018-08-20T06:07:17.876Z,1005.12
2018-08-20T06:08:17.860Z,1005.12
2018-08-20T06:09:17.845Z,1005.11
2018-08-20T06:10:17.827Z,1005.15
2018-08-20T06:11:17.810Z,1005.18
2018-08-20T06:12:17.790Z,1005.17
2018-08-20T06:13:17.779Z,1005.15
2018-08-20T06:14:17.762Z,1005.23
2018-08-20T06:15:17.804Z,1005.21
2018-08-20T06:16:17.726Z,1005.24
2018-08-20T06:17:17.712Z,1005.25
2018-08-20T06:18:17.697Z,1005.24
2018-08-20T06:19:17.677Z,1005.23
2018-08-20T06:20:17.687Z,1005.23
2018-08-20T06:21:17.646Z,1005.23
2018-08-20T06:22:17.628Z,1005.20
2018-08-20T06:23:17.613Z,1005.24
2018-08-20T06:24:17.605Z,1005.27
2018-08-20T06:25:17.583Z,1005.26
2018-08-20T06:26:17.567Z,1005.28
2018-08-20T06:27:17.549Z,1005.31
2018-08-20T06:28:17.531Z,1005.31
2018-08-20T06:29:17.519Z,1005.32
2018-08-20T06:30:17.500Z,1005.33
2018-08-20T06:31:17.485Z,1005.37
2018-08-20T06:32:17.469Z,1005.35
2018-08-20T06:33:17.449Z,1005.35
2018-08-20T06:34:17.435Z,1005.37
2018-08-20T06:35:17.427Z,1005.36
2018-08-20T06:36:17.403Z,1005.40
2018-08-20T06:37:17.386Z,1005.42
2018-08-20T06:38:17.370Z,1005.41
2018-08-20T06:39:17.355Z,1005.41
2018-08-20T06:40:17.337Z,1005.46
2018-08-20T06:41:17.324Z,1005.41
2018-08-20T06:42:17.301Z,1005.39
2018-08-20T06:43:17.291Z,1005.38
2018-08-20T06:44:17.276Z,1005.40
2018-08-20T06:45:17.255Z,1005.40
2018-08-20T06:46:17.237Z,1005.42
2018-08-20T06:47:17.225Z,1005.38
2018-08-20T06:48:17.208Z,1005.40
2018-08-20T06:49:17.192Z,1005.44
2018-08-20T06:50:17.177Z,1005.39
2018-08-20T06:51:17.159Z,1005.43
2018-08-20T06:52:17.142Z,1005.48
2018-08-20T06:53:17.122Z,1005.47
2018-08-20T06:54:17.112Z,1005.50
2018-08-20T06:56:50.212Z,1005.54
2018-08-20T06:57:50.170Z,1005.53
2018-08-20T06:58:50.172Z,1005.53
2018-08-20T06:59:50.141Z,1005.53
2018-08-20T07:00:50.122Z,1005.55
2018-08-20T07:01:50.102Z,1005.54
2018-08-20T07:02:50.089Z,1005.53
2018-08-20T07:03:50.074Z,1005.52
2018-08-20T07:04:50.053Z,1005.55
2018-08-20T07:05:50.035Z,1005.53
2018-08-20T07:06:50.029Z,1005.58
2018-08-20T07:07:50.003Z,1005.57
2018-08-20T07:08:49.987Z,1005.59
2018-08-20T07:09:49.975Z,1005.59
2018-08-20T07:10:49.956Z,1005.59
2018-08-20T07:11:49.978Z,1005.62
2018-08-20T07:12:49.926Z,1005.63
2018-08-20T07:13:49.908Z,1005.63
2018-08-20T07:14:49.889Z,1005.67
2018-08-20T07:15:49.879Z,1005.65
2018-08-20T07:16:49.853Z,1005.67
2018-08-20T07:17:49.851Z,1005.70
2018-08-20T07:18:49.830Z,1005.67
2018-08-20T07:19:49.826Z,1005.74
2018-08-20T07:20:49.794Z,1005.75
2018-08-20T07:21:49.776Z,1005.76
2018-08-20T07:22:49.806Z,1005.75
2018-08-20T07:23:49.799Z,1005.76
2018-08-20T07:24:49.729Z,1005.77
2018-08-20T07:25:49.739Z,1005.81
2018-08-20T07:26:49.697Z,1005.78
2018-08-20T07:27:49.682Z,1005.81
2018-08-20T07:28:49.670Z,1005.81
2018-08-20T07:29:49.644Z,1005.81
2018-08-20T07:30:49.653Z,1005.83
2018-08-20T07:31:49.612Z,1005.85
2018-08-20T07:32:49.610Z,1005.86
2018-08-20T07:33:49.579Z,1005.86
2018-08-20T07:34:49.570Z,1005.83
2018-08-20T07:35:49.552Z,1005.84
2018-08-20T07:36:49.532Z,1005.85
2018-08-20T07:37:49.520Z,1005.91
2018-08-20T07:38:49.499Z,1005.90
2018-08-20T07:39:49.486Z,1005.89
2018-08-20T07:40:49.471Z,1005.92
2018-08-20T07:41:49.451Z,1005.94
2018-08-20T07:42:49.436Z,1005.95
2018-08-20T07:43:49.433Z,1005.92
2018-08-20T07:44:49.403Z,1005.93
2018-08-20T07:45:49.387Z,1005.93
2018-08-20T07:46:49.369Z,1005.93
2018-08-20T07:47:49.355Z,1005.92
2018-08-20T07:48:49.342Z,1005.91
2018-08-20T07:49:49.338Z,1005.92
2018-08-20T07:50:49.311Z,1005.93
2018-08-20T07:51:49.302Z,1005.92
2018-08-20T07:52:49.271Z,1005.96
2018-08-20T07:53:49.266Z,1005.95
2018-08-20T07:54:49.242Z,1005.98
2018-08-20T07:55:49.231Z,1006.02
2018-08-20T07:56:49.213Z,1006.00
2018-08-20T07:57:49.196Z,1006.01
2018-08-20T07:58:49.179Z,1006.01
2018-08-20T07:59:49.171Z,1005.98
2018-08-20T08:00:49.150Z,1005.95
2018-08-20T08:01:49.132Z,1005.98
2018-08-20T08:02:49.114Z,1005.97
2018-08-20T08:03:49.099Z,1005.97
2018-08-20T08:04:49.081Z,1006.01
2018-08-20T08:05:49.070Z,1006.00
2018-08-20T08:06:49.050Z,1006.04
2018-08-20T08:07:49.035Z,1006.04
2018-08-20T08:08:49.055Z,1006.03
2018-08-20T08:09:49.005Z,1006.03
2018-08-20T08:10:48.994Z,1006.03
2018-08-20T08:11:48.973Z,1006.05
2018-08-20T08:12:48.958Z,1006.04
2018-08-20T08:13:49.763Z,1006.09
2018-08-20T08:14:48.924Z,1006.13
2018-08-20T08:15:48.913Z,1006.12
2018-08-20T08:16:48.891Z,1006.10
2018-08-20T08:17:48.874Z,1006.13
2018-08-20T08:18:48.858Z,1006.16
2018-08-20T08:19:48.860Z,1006.15
2018-08-20T08:20:48.832Z,1006.12
2018-08-20T08:21:48.813Z,1006.15
2018-08-20T08:22:48.795Z,1006.11
2018-08-20T08:23:48.780Z,1006.08
2018-08-20T08:24:48.772Z,1006.12
2018-08-20T08:25:48.751Z,1006.11
2018-08-20T08:26:48.738Z,1006.09
2018-08-20T08:27:48.722Z,1006.13
2018-08-20T08:28:48.705Z,1006.12
2018-08-20T08:29:48.686Z,1006.14
2018-08-20T08:30:48.677Z,1006.14
2018-08-20T08:31:48.659Z,1006.14
2018-08-20T08:32:48.643Z,1006.16
2018-08-20T08:33:48.624Z,1006.15
2018-08-20T08:34:48.618Z,1006.19
2018-08-20T08:35:48.599Z,1006.23
2018-08-20T08:36:48.580Z,1006.21
2018-08-20T08:37:48.567Z,1006.19
2018-08-20T08:38:48.552Z,1006.21
2018-08-20T08:39:48.529Z,1006.23
2018-08-20T08:40:48.517Z,1006.22
2018-08-20T08:41:48.508Z,1006.22
2018-08-20T08:42:48.487Z,1006.24
2018-08-20T08:43:48.468Z,1006.27
2018-08-20T08:44:48.451Z,1006.25
2018-08-20T08:45:48.443Z,1006.28
2018-08-20T08:46:48.428Z,1006.30
2018-08-20T08:47:48.414Z,1006.29
2018-08-20T08:48:48.397Z,1006.30
2018-08-20T08:49:48.453Z,1006.28
2018-08-20T08:50:48.365Z,1006.31
2018-08-20T08:51:48.382Z,1006.33
2018-08-20T08:52:48.371Z,1006.28
2018-08-20T08:53:48.320Z,1006.31
2018-08-20T08:54:48.303Z,1006.27
2018-08-20T08:55:48.333Z,1006.29
2018-08-20T08:56:48.273Z,1006.29
2018-08-20T08:57:48.256Z,1006.28
2018-08-20T08:58:48.241Z,1006.28
2018-08-20T08:59:48.226Z,1006.28
2018-08-20T09:00:48.214Z,1006.30
2018-08-20T09:01:48.195Z,1006.30
2018-08-20T09:02:48.181Z,1006.32
2018-08-20T09:03:48.166Z,1006.32
2018-08-20T09:04:48.210Z,1006.29
2018-08-20T09:05:48.135Z,1006.31
2018-08-20T09:06:48.117Z,1006.33
2018-08-20T09:07:48.108Z,1006.38
2018-08-20T09:08:48.087Z,1006.42
2018-08-20T09:09:48.076Z,1006.40
2018-08-20T09:10:48.101Z,1006.43
2018-08-20T09:11:48.050Z,1006.44
2018-08-20T09:12:48.033Z,1006.47
2018-08-20T09:13:48.091Z,1006.46
2018-08-20T09:14:48.000Z,1006.47
2018-08-20T09:15:47.986Z,1006.44
2018-08-20T09:16:47.972Z,1006.45
2018-08-20T09:17:47.961Z,1006.46
2018-08-20T09:18:47.940Z,1006.42
2018-08-20T09:19:47.924Z,1006.42
2018-08-20T09:20:47.910Z,1006.41
2018-08-20T09:21:47.898Z,1006.40
2018-08-20T09:22:47.880Z,1006.48
2018-08-20T09:23:47.867Z,1006.46
2018-08-20T09:24:47.850Z,1006.46
2018-08-20T09:25:47.872Z,1006.47
2018-08-20T09:26:47.861Z,1006.47
2018-08-20T09:27:47.846Z,1006.49
2018-08-20T09:28:47.826Z,1006.47
2018-08-20T09:29:47.825Z,1006.48
2018-08-20T09:30:47.797Z,1006.46
2018-08-20T09:31:47.778Z,1006.44
2018-08-20T09:32:47.748Z,1006.45
2018-08-20T09:33:47.752Z,1006.46
2018-08-20T09:34:47.728Z,1006.47
2018-08-20T09:35:47.719Z,1006.46
2018-08-20T09:36:47.700Z,1006.47
2018-08-20T09:37:47.693Z,1006.48
2018-08-20T09:38:47.648Z,1006.46
2018-08-20T09:39:47.628Z,1006.48
2018-08-20T09:40:47.613Z,1006.52
2018-08-20T09:41:47.596Z,1006.49
2018-08-20T09:42:47.616Z,1006.49
2018-08-20T09:43:47.591Z,1006.53
2018-08-20T09:44:47.553Z,1006.48
2018-08-20T09:45:47.539Z,1006.46
2018-08-20T09:46:47.530Z,1006.47
2018-08-20T09:47:47.512Z,1006.46
2018-08-20T09:48:47.498Z,1006.47
2018-08-20T09:49:47.482Z,1006.49
2018-08-20T09:50:47.475Z,1006.53
2018-08-20T09:51:47.453Z,1006.50
2018-08-20T09:52:47.462Z,1006.55
2018-08-20T09:53:47.427Z,1006.58
2018-08-20T09:54:47.408Z,1006.62
2018-08-20T09:55:47.395Z,1006.59
2018-08-20T09:56:47.379Z,1006.56
2018-08-20T09:57:47.370Z,1006.53
2018-08-20T09:58:47.350Z,1006.55
2018-08-20T09:59:47.333Z,1006.56
2018-08-20T10:00:47.322Z,1006.56
2018-08-20T10:01:47.319Z,1006.55
2018-08-20T10:02:47.291Z,1006.57
2018-08-20T10:03:47.280Z,1006.60
2018-08-20T10:04:47.263Z,1006.58
2018-08-20T10:05:47.254Z,1006.60
2018-08-20T10:06:47.231Z,1006.57
2018-08-20T10:07:47.226Z,1006.59
2018-08-20T10:08:47.210Z,1006.62
2018-08-20T10:09:47.255Z,1006.63
2018-08-20T10:10:47.179Z,1006.66
2018-08-20T10:11:47.168Z,1006.64
2018-08-20T10:12:47.150Z,1006.61
2018-08-20T10:13:47.237Z,1006.57
2018-08-20T10:14:47.122Z,1006.56
2018-08-20T10:15:47.106Z,1006.56
2018-08-20T10:16:47.094Z,1006.52
2018-08-20T10:17:47.178Z,1006.50
2018-08-20T10:18:47.854Z,1006.50
2018-08-20T10:19:47.122Z,1006.51
2018-08-20T10:20:47.114Z,1006.50
2018-08-20T10:21:47.880Z,1006.51
2018-08-20T10:22:47.092Z,1006.52
2018-08-20T10:23:47.073Z,1006.47
2018-08-20T10:24:47.067Z,1006.47
2018-08-20T10:25:47.053Z,1006.49
2018-08-20T10:26:47.044Z,1006.45
2018-08-20T10:27:47.018Z,1006.46
2018-08-20T10:28:47.859Z,1006.49
2018-08-20T10:29:46.924Z,1006.45
2018-08-20T10:30:47.876Z,1006.51
2018-08-20T10:31:46.955Z,1006.53
2018-08-20T10:32:47.824Z,1006.52
2018-08-20T10:33:46.941Z,1006.52
2018-08-20T10:34:46.931Z,1006.52
2018-08-20T10:35:46.927Z,1006.55
2018-08-20T10:36:48.841Z,1006.58
2018-08-20T10:37:46.999Z,1006.58
2018-08-20T10:38:46.876Z,1006.54
2018-08-20T10:39:46.856Z,1006.61
2018-08-20T10:40:47.350Z,1006.65
2018-08-20T10:41:46.849Z,1006.66
2018-08-20T10:42:48.379Z,1006.68
2018-08-20T10:43:46.876Z,1006.64
2018-08-20T10:44:46.808Z,1006.65
2018-08-20T10:45:46.768Z,1006.68
2018-08-20T10:46:46.777Z,1006.67
2018-08-20T10:47:46.771Z,1006.65
2018-08-20T10:48:46.765Z,1006.68
2018-08-20T10:49:46.750Z,1006.69
2018-08-20T10:50:46.740Z,1006.68
2018-08-20T10:51:46.692Z,1006.63
2018-08-20T10:52:46.688Z,1006.66
2018-08-20T10:53:46.716Z,1006.64
2018-08-20T10:54:46.679Z,1006.63
2018-08-20T10:55:46.635Z,1006.66
2018-08-20T10:56:46.683Z,1006.61
2018-08-20T10:57:46.664Z,1006.61
2018-08-20T10:58:46.599Z,1006.62
2018-08-20T10:59:48.389Z,1006.62
2018-08-20T11:00:46.613Z,1006.60
2018-08-20T11:01:46.662Z,1006.61
2018-08-20T11:02:46.580Z,1006.62
2018-08-20T11:03:46.583Z,1006.58
2018-08-20T11:04:46.633Z,1006.59
2018-08-20T11:05:46.578Z,1006.59
2018-08-20T11:06:47.392Z,1006.58
2018-08-20T11:07:46.553Z,1006.59
2018-08-20T11:10:08.904Z,1006.60
2018-08-20T11:11:08.698Z,1006.62
2018-08-20T11:13:03.029Z,1006.53
2018-08-20T11:14:03.549Z,1006.55
2018-08-20T11:15:03.532Z,1006.55
2018-08-20T11:16:03.597Z,1006.57
2018-08-20T11:17:02.957Z,1006.57
2018-08-20T11:18:02.960Z,1006.59
2018-08-20T11:19:02.916Z,1006.59
2018-08-20T11:20:02.928Z,1006.59
2018-08-20T11:21:02.912Z,1006.60
2018-08-20T11:22:02.878Z,1006.60
2018-08-20T11:23:03.541Z,1006.56
2018-08-20T11:24:02.892Z,1006.52
2018-08-20T11:25:02.872Z,1006.53
2018-08-20T11:26:04.553Z,1006.51
2018-08-20T11:27:02.936Z,1006.51
2018-08-20T11:28:02.850Z,1006.45
2018-08-20T11:29:03.548Z,1006.53
2018-08-20T11:30:02.825Z,1006.48
2018-08-20T11:31:02.802Z,1006.51
2018-08-20T11:32:04.505Z,1006.52
2018-08-20T11:33:02.766Z,1006.51
2018-08-20T11:34:03.557Z,1006.48
2018-08-20T11:35:02.749Z,1006.52
2018-08-20T11:36:02.758Z,1006.51
2018-08-20T11:37:02.766Z,1006.48
2018-08-20T11:38:02.740Z,1006.53
2018-08-20T11:41:40.718Z,1006.50
2018-08-20T11:42:39.571Z,1006.47
2018-08-20T11:43:39.619Z,1006.53
2018-08-20T11:44:39.639Z,1006.51
2018-08-20T11:45:39.545Z,1006.45
2018-08-20T11:46:39.583Z,1006.51
2018-08-20T11:47:39.563Z,1006.52
2018-08-20T11:48:39.531Z,1006.51
2018-08-20T11:49:39.519Z,1006.52
2018-08-20T11:50:39.485Z,1006.51
2018-08-20T11:51:39.527Z,1006.49
2018-08-20T11:52:39.506Z,1006.46
2018-08-20T11:53:39.478Z,1006.47
2018-08-20T11:54:39.544Z,1006.43
2018-08-20T11:55:40.289Z,1006.47
2018-08-20T11:56:39.798Z,1006.43
2018-08-20T11:57:39.439Z,1006.45
2018-08-20T11:58:39.444Z,1006.44
2018-08-20T11:59:39.483Z,1006.45
2018-08-20T12:00:39.477Z,1006.41
2018-08-20T12:01:40.063Z,1006.41
2018-08-20T12:02:39.371Z,1006.42
2018-08-20T12:03:39.519Z,1006.41
2018-08-20T12:04:39.440Z,1006.43
2018-08-20T12:05:39.429Z,1006.41
2018-08-20T12:06:39.356Z,1006.41
2018-08-20T12:07:39.380Z,1006.37
2018-08-20T12:08:39.311Z,1006.38
2018-08-20T12:09:39.321Z,1006.36
2018-08-20T12:10:40.052Z,1006.35
2018-08-20T12:13:21.974Z,1006.38
2018-08-20T12:14:12.341Z,1006.39
2018-08-20T12:15:12.370Z,1006.34
2018-08-20T12:16:12.358Z,1006.36